Time;durP1;ratioP1;P1;durP2;ratioP2;P2;SDS_P1;SDS_P2;PMS_P1;PMS_P2;Temp;Humidity;BMP_temperature;BMP_pressure;BME280_temperature;BME280_humidity;BME280_pressure;Samples;Min_cycle;Max_cycle;Signal;HPM_P1;HPM_P2
2022/04/24 00:00:34;;;;;;;41.67;24.85;;;;;;;;;;5020797;28;20032;-44
2022/04/24 00:03:00;;;;;;;43.35;26.05;;;;;;;;;;5021287;28;20024;-43
2022/04/24 00:05:26;;;;;;;46.13;27.70;;;;;;;;;;5021069;28;20033;-44
2022/04/24 00:07:52;;;;;;;45.30;27.50;;;;;;;;;;5021118;28;20025;-44
2022/04/24 00:10:18;;;;;;;45.03;29.05;;;;;;;;;;5028188;28;20110;-43
2022/04/24 00:12:45;;;;;;;40.83;25.45;;;;;;;;;;5033117;28;20030;-42
2022/04/24 00:15:11;;;;;;;42.35;26.80;;;;;;;;;;5031611;28;20109;-42
2022/04/24 00:17:37;;;;;;;41.65;26.30;;;;;;;;;;5032930;28;20052;-44
2022/04/24 00:20:04;;;;;;;38.45;23.45;;;;;;;;;;5032856;28;20029;-40
2022/04/24 00:22:30;;;;;;;40.17;24.25;;;;;;;;;;5032731;28;20030;-43
2022/04/24 00:24:56;;;;;;;43.17;27.23;;;;;;;;;;5035920;28;20021;-42
2022/04/24 00:27:22;;;;;;;41.80;25.92;;;;;;;;;;5036604;28;20097;-39
2022/04/24 00:29:48;;;;;;;38.42;24.38;;;;;;;;;;5036301;28;20024;-41
2022/04/24 00:32:17;;;;;;;41.85;25.17;;;;;;;;;;5036300;28;20489;-44
2022/04/24 00:34:43;;;;;;;40.42;25.00;;;;;;;;;;5036419;28;20477;-42
2022/04/24 00:37:09;;;;;;;39.30;23.42;;;;;;;;;;5035940;28;20466;-37
2022/04/24 00:39:35;;;;;;;39.03;24.52;;;;;;;;;;5036184;28;20032;-38
2022/04/24 00:42:01;;;;;;;41.83;25.08;;;;;;;;;;5035969;28;20057;-44
2022/04/24 00:44:28;;;;;;;40.42;23.90;;;;;;;;;;5036186;28;20056;-37
2022/04/24 00:47:03;;;;;;;37.90;24.05;;;;;;;;;;5036090;28;20040;-42
2022/04/24 00:49:30;;;;;;;36.15;23.35;;;;;;;;;;5035710;28;20112;-37
2022/04/24 00:51:57;;;;;;;39.67;24.08;;;;;;;;;;5035753;28;20046;-38
2022/04/24 00:54:23;;;;;;;38.85;25.25;;;;;;;;;;5035812;28;20127;-38
2022/04/24 00:56:49;;;;;;;40.13;24.60;;;;;;;;;;5036223;28;20030;-38
2022/04/24 00:59:16;;;;;;;41.65;25.48;;;;;;;;;;5035753;28;20025;-37
2022/04/24 01:01:42;;;;;;;38.28;23.55;;;;;;;;;;5035827;28;20022;-38
2022/04/24 01:04:09;;;;;;;39.95;25.25;;;;;;;;;;5035782;28;20053;-37
2022/04/24 01:06:36;;;;;;;40.53;23.55;;;;;;;;;;5035667;28;20116;-37
2022/04/24 01:09:22;;;;;;;38.38;24.00;;;;;;;;;;5035463;28;20033;-36
2022/04/24 01:11:52;;;;;;;40.88;25.35;;;;;;;;;;5035608;28;20448;-39
2022/04/24 01:14:19;;;;;;;42.65;25.02;;;;;;;;;;5035590;28;20029;-37
2022/04/24 01:16:46;;;;;;;36.75;23.50;;;;;;;;;;5035408;28;20021;-37
2022/04/24 01:19:13;;;;;;;43.78;25.38;;;;;;;;;;5035448;28;20433;-37
2022/04/24 01:21:41;;;;;;;38.67;23.33;;;;;;;;;;5035141;28;20120;-36
2022/04/24 01:24:08;;;;;;;43.97;27.00;;;;;;;;;;5035414;28;20038;-37
2022/04/24 01:26:35;;;;;;;43.63;25.95;;;;;;;;;;5035288;28;20032;-37
2022/04/24 01:29:01;;;;;;;37.88;24.88;;;;;;;;;;5035206;28;20239;-43
2022/04/24 01:31:27;;;;;;;43.33;26.67;;;;;;;;;;5035148;28;20026;-38
2022/04/24 01:33:54;;;;;;;42.97;26.27;;;;;;;;;;5035145;28;20034;-38
2022/04/24 01:36:20;;;;;;;41.45;25.92;;;;;;;;;;5034396;28;20025;-38
2022/04/24 01:38:46;;;;;;;41.30;25.83;;;;;;;;;;5034957;28;20108;-37
2022/04/24 01:41:12;;;;;;;41.65;26.25;;;;;;;;;;5035022;28;20117;-37
2022/04/24 01:43:38;;;;;;;42.70;25.80;;;;;;;;;;5035066;28;20029;-37
2022/04/24 01:46:05;;;;;;;39.67;24.63;;;;;;;;;;5034907;28;20097;-37
2022/04/24 01:48:34;;;;;;;43.75;26.73;;;;;;;;;;5034928;28;20021;-37
2022/04/24 01:51:08;;;;;;;41.08;25.10;;;;;;;;;;5034624;28;20515;-38
2022/04/24 01:53:35;;;;;;;42.75;25.92;;;;;;;;;;5034900;28;20029;-45
2022/04/24 01:56:05;;;;;;;42.25;27.10;;;;;;;;;;5034821;28;20477;-45
2022/04/24 01:58:31;;;;;;;39.30;24.75;;;;;;;;;;5034769;28;20465;-44
2022/04/24 02:00:58;;;;;;;45.55;25.98;;;;;;;;;;5034688;28;20057;-43
2022/04/24 02:03:26;;;;;;;42.13;26.15;;;;;;;;;;5034677;28;20037;-44
2022/04/24 02:05:52;;;;;;;43.28;27.17;;;;;;;;;;5034535;28;20400;-43
2022/04/24 02:08:18;;;;;;;42.63;26.52;;;;;;;;;;5034429;28;20060;-43
2022/04/24 02:10:45;;;;;;;42.90;26.80;;;;;;;;;;5034571;28;20021;-42
2022/04/24 02:13:11;;;;;;;44.88;27.70;;;;;;;;;;5034591;28;20057;-42
2022/04/24 02:15:37;;;;;;;43.25;26.73;;;;;;;;;;5034365;28;20146;-45
2022/04/24 02:18:03;;;;;;;40.75;26.90;;;;;;;;;;5034374;28;20033;-42
2022/04/24 02:20:30;;;;;;;42.08;26.42;;;;;;;;;;5034102;28;20030;-44
2022/04/24 02:22:57;;;;;;;41.40;26.17;;;;;;;;;;5034134;28;20508;-42
2022/04/24 02:25:24;;;;;;;44.17;26.40;;;;;;;;;;5034207;28;20037;-43
2022/04/24 02:27:53;;;;;;;42.45;25.67;;;;;;;;;;5034039;28;20167;-43
2022/04/24 02:30:19;;;;;;;42.55;26.45;;;;;;;;;;5034067;28;20037;-41
2022/04/24 02:32:45;;;;;;;47.53;27.05;;;;;;;;;;5033969;28;20084;-43
2022/04/24 02:35:12;;;;;;;38.60;24.52;;;;;;;;;;5034194;28;20480;-39
2022/04/24 02:37:38;;;;;;;39.80;26.08;;;;;;;;;;5033922;28;20481;-42
2022/04/24 02:40:09;;;;;;;42.83;27.00;;;;;;;;;;5034287;28;20385;-43
2022/04/24 02:42:36;;;;;;;44.45;26.85;;;;;;;;;;5034167;28;20083;-43
2022/04/24 02:45:03;;;;;;;40.30;25.15;;;;;;;;;;5033808;28;20040;-44
2022/04/24 02:47:29;;;;;;;40.33;26.05;;;;;;;;;;5032779;28;20025;-42
2022/04/24 02:49:55;;;;;;;43.15;26.92;;;;;;;;;;5033469;28;20045;-40
2022/04/24 02:52:21;;;;;;;42.55;26.33;;;;;;;;;;5033609;28;20509;-42
2022/04/24 02:54:47;;;;;;;43.58;26.88;;;;;;;;;;5033585;28;20025;-39
2022/04/24 02:57:13;;;;;;;39.15;25.60;;;;;;;;;;5033677;28;20068;-40
2022/04/24 02:59:42;;;;;;;42.85;25.77;;;;;;;;;;5033577;28;20021;-44
2022/04/24 03:02:09;;;;;;;38.47;25.35;;;;;;;;;;5033624;28;20029;-40
2022/04/24 03:04:35;;;;;;;41.63;23.30;;;;;;;;;;5033400;28;20025;-44
2022/04/24 03:07:02;;;;;;;40.85;24.52;;;;;;;;;;5033537;28;20064;-45
2022/04/24 03:09:28;;;;;;;40.65;24.95;;;;;;;;;;5033546;28;20022;-43
2022/04/24 03:11:54;;;;;;;41.53;25.77;;;;;;;;;;5033648;28;20044;-42
2022/04/24 03:14:23;;;;;;;38.40;24.08;;;;;;;;;;5033412;28;20025;-44
2022/04/24 03:16:49;;;;;;;42.50;26.38;;;;;;;;;;5033466;28;20527;-37
2022/04/24 03:19:17;;;;;;;39.90;25.00;;;;;;;;;;5033576;28;20029;-41
2022/04/24 03:21:43;;;;;;;41.55;26.65;;;;;;;;;;5033099;28;20048;-35
2022/04/24 03:24:09;;;;;;;40.13;26.30;;;;;;;;;;5033416;28;20543;-41
2022/04/24 03:26:35;;;;;;;39.90;24.27;;;;;;;;;;5033489;28;20056;-42
2022/04/24 03:29:02;;;;;;;41.33;26.08;;;;;;;;;;5033190;28;20064;-38
2022/04/24 03:31:28;;;;;;;40.85;24.98;;;;;;;;;;5044060;28;20032;-36
2022/04/24 03:33:54;;;;;;;44.47;25.73;;;;;;;;;;5053042;28;20060;-41
2022/04/24 03:36:20;;;;;;;40.58;25.60;;;;;;;;;;5053121;28;20018;-36
2022/04/24 03:38:47;;;;;;;42.08;25.58;;;;;;;;;;5052992;28;20029;-36
2022/04/24 03:41:13;;;;;;;61.85;34.20;;;;;;;;;;5053315;28;20025;-36
2022/04/24 03:43:39;;;;;;;49.70;28.63;;;;;;;;;;5052446;28;20139;-35
2022/04/24 03:46:07;;;;;;;47.85;28.45;;;;;;;;;;5052599;28;20146;-34
2022/04/24 03:48:34;;;;;;;43.08;26.98;;;;;;;;;;5052319;28;20013;-36
2022/04/24 03:51:01;;;;;;;46.55;27.98;;;;;;;;;;5052134;28;20051;-35
2022/04/24 03:53:27;;;;;;;40.63;26.33;;;;;;;;;;5052801;28;20033;-34
2022/04/24 03:55:53;;;;;;;39.75;25.13;;;;;;;;;;5052609;28;20370;-35
2022/04/24 03:58:24;;;;;;;39.08;24.60;;;;;;;;;;5053259;28;20032;-37
2022/04/24 04:00:50;;;;;;;35.30;22.73;;;;;;;;;;5056308;28;20020;-37
2022/04/24 04:03:16;;;;;;;37.75;23.60;;;;;;;;;;5056317;28;20040;-35
2022/04/24 04:05:42;;;;;;;34.53;21.98;;;;;;;;;;5053555;28;20025;-36
2022/04/24 04:08:08;;;;;;;38.50;23.25;;;;;;;;;;5056615;28;20104;-39
2022/04/24 04:10:35;;;;;;;46.63;27.30;;;;;;;;;;5056612;28;20021;-39
2022/04/24 04:13:05;;;;;;;43.63;24.73;;;;;;;;;;5056821;28;20033;-45
2022/04/24 04:15:32;;;;;;;62.15;34.05;;;;;;;;;;5056573;28;20029;-41
2022/04/24 04:18:00;;;;;;;76.80;39.22;;;;;;;;;;5056492;28;20025;-38
2022/04/24 04:20:26;;;;;;;51.45;28.98;;;;;;;;;;5056495;28;20021;-37
2022/04/24 04:22:52;;;;;;;34.40;21.85;;;;;;;;;;5056713;28;20399;-42
2022/04/24 04:25:23;;;;;;;43.92;27.88;;;;;;;;;;5056328;28;20021;-41
2022/04/24 04:27:50;;;;;;;52.17;29.57;;;;;;;;;;5055220;28;20114;-44
2022/04/24 04:30:18;;;;;;;44.42;26.77;;;;;;;;;;5056182;28;20017;-37
2022/04/24 04:32:45;;;;;;;32.45;21.20;;;;;;;;;;5056132;28;20068;-36
2022/04/24 04:35:11;;;;;;;30.73;20.42;;;;;;;;;;5056066;28;20051;-36
2022/04/24 04:37:39;;;;;;;36.40;21.30;;;;;;;;;;5056210;28;20484;-35
2022/04/24 04:40:06;;;;;;;34.13;21.23;;;;;;;;;;5056098;28;20051;-36
2022/04/24 04:42:32;;;;;;;30.67;19.88;;;;;;;;;;5056162;28;20029;-36
2022/04/24 04:45:00;;;;;;;39.53;22.35;;;;;;;;;;5056124;28;20092;-35
2022/04/24 04:47:27;;;;;;;33.00;20.30;;;;;;;;;;5054718;28;20021;-35
2022/04/24 04:49:56;;;;;;;33.92;21.25;;;;;;;;;;5055685;28;20044;-41
2022/04/24 04:52:23;;;;;;;32.63;20.20;;;;;;;;;;5055777;28;20033;-36
2022/04/24 04:54:49;;;;;;;30.58;19.90;;;;;;;;;;5055811;28;20023;-38
2022/04/24 04:57:16;;;;;;;29.80;19.40;;;;;;;;;;5055776;28;20032;-37
2022/04/24 04:59:42;;;;;;;36.03;19.88;;;;;;;;;;5055880;28;20025;-36
2022/04/24 05:02:08;;;;;;;34.03;20.35;;;;;;;;;;5055707;28;20060;-41
2022/04/24 05:04:34;;;;;;;39.75;22.35;;;;;;;;;;5055642;28;20028;-42
2022/04/24 05:07:00;;;;;;;35.35;20.20;;;;;;;;;;5055759;28;20089;-41
2022/04/24 05:09:26;;;;;;;37.75;21.58;;;;;;;;;;5055214;28;20029;-37
2022/04/24 05:11:53;;;;;;;31.98;19.50;;;;;;;;;;5055071;28;20492;-40
2022/04/24 05:14:19;;;;;;;35.38;22.05;;;;;;;;;;5055558;28;20017;-36
2022/04/24 05:16:45;;;;;;;31.60;20.27;;;;;;;;;;5055485;28;20044;-40
2022/04/24 05:19:11;;;;;;;32.65;19.50;;;;;;;;;;5055233;28;20043;-42
2022/04/24 05:21:40;;;;;;;34.08;19.77;;;;;;;;;;5055484;28;20037;-42
2022/04/24 05:24:06;;;;;;;31.30;19.70;;;;;;;;;;5055339;28;20039;-42
2022/04/24 05:26:32;;;;;;;28.83;19.60;;;;;;;;;;5053718;28;20428;-41
2022/04/24 05:28:58;;;;;;;30.02;19.17;;;;;;;;;;5055491;28;20017;-44
2022/04/24 05:31:24;;;;;;;33.92;19.73;;;;;;;;;;5055197;28;20025;-42
2022/04/24 05:33:50;;;;;;;29.25;18.90;;;;;;;;;;5055337;28;20630;-47
2022/04/24 05:36:16;;;;;;;26.52;18.65;;;;;;;;;;5055214;28;20031;-39
2022/04/24 05:38:43;;;;;;;28.88;18.95;;;;;;;;;;5054928;28;20025;-38
2022/04/24 05:41:09;;;;;;;37.70;20.67;;;;;;;;;;5054988;28;20029;-43
2022/04/24 05:43:35;;;;;;;29.52;20.80;;;;;;;;;;5054934;28;20021;-40
2022/04/24 05:46:03;;;;;;;29.23;20.00;;;;;;;;;;5054784;28;20446;-38
2022/04/24 05:48:29;;;;;;;32.85;21.42;;;;;;;;;;5054976;28;20024;-39
2022/04/24 05:50:55;;;;;;;29.65;18.85;;;;;;;;;;5054607;28;20638;-39
2022/04/24 05:53:21;;;;;;;32.83;20.48;;;;;;;;;;5054625;28;20051;-38
2022/04/24 05:55:47;;;;;;;28.52;18.58;;;;;;;;;;5054623;28;20116;-42
2022/04/24 05:58:13;;;;;;;32.83;18.00;;;;;;;;;;5054791;28;20021;-42
2022/04/24 06:00:40;;;;;;;31.05;18.30;;;;;;;;;;5054499;28;20045;-39
2022/04/24 06:03:06;;;;;;;40.58;20.75;;;;;;;;;;5054588;28;20032;-40
2022/04/24 06:05:32;;;;;;;34.45;19.65;;;;;;;;;;5054315;28;20099;-43
2022/04/24 06:08:00;;;;;;;37.58;18.98;;;;;;;;;;5054354;28;20059;-42
2022/04/24 06:10:26;;;;;;;34.13;19.10;;;;;;;;;;5054296;28;20400;-36
2022/04/24 06:12:56;;;;;;;27.85;17.63;;;;;;;;;;5054225;28;20044;-37
2022/04/24 06:15:24;;;;;;;24.15;17.35;;;;;;;;;;5054331;28;20423;-43
2022/04/24 06:17:58;;;;;;;27.40;17.58;;;;;;;;;;5054204;28;20025;-37
2022/04/24 06:20:26;;;;;;;30.65;18.17;;;;;;;;;;5054099;28;20047;-42
2022/04/24 06:22:58;;;;;;;28.45;18.58;;;;;;;;;;5054061;28;20025;-40
2022/04/24 06:25:26;;;;;;;25.98;16.85;;;;;;;;;;5054000;28;20017;-38
2022/04/24 06:27:52;;;;;;;22.80;15.82;;;;;;;;;;5053953;28;20044;-44
2022/04/24 06:30:19;;;;;;;28.15;17.23;;;;;;;;;;5054001;28;20028;-40
2022/04/24 06:32:46;;;;;;;29.52;16.73;;;;;;;;;;5053763;28;20476;-37
2022/04/24 06:35:14;;;;;;;23.55;15.10;;;;;;;;;;5054115;28;20037;-38
2022/04/24 06:37:42;;;;;;;28.05;15.95;;;;;;;;;;5054010;28;20112;-41
2022/04/24 06:40:09;;;;;;;23.63;16.13;;;;;;;;;;5053653;28;20036;-40
2022/04/24 06:42:35;;;;;;;25.85;16.75;;;;;;;;;;5053979;28;20449;-42
2022/04/24 06:45:02;;;;;;;21.95;15.77;;;;;;;;;;5053873;28;20075;-40
2022/04/24 06:47:29;;;;;;;24.67;16.15;;;;;;;;;;5053690;28;20025;-38
2022/04/24 06:49:55;;;;;;;28.00;16.40;;;;;;;;;;5053570;28;20045;-39
2022/04/24 06:52:22;;;;;;;23.48;15.82;;;;;;;;;;5053164;28;20115;-43
2022/04/24 06:54:48;;;;;;;21.70;14.57;;;;;;;;;;5053274;28;20028;-41
2022/04/24 06:57:14;;;;;;;20.92;15.40;;;;;;;;;;5053110;28;20384;-44
2022/04/24 06:59:40;;;;;;;22.13;15.63;;;;;;;;;;5053041;28;20377;-39
2022/04/24 07:02:09;;;;;;;22.27;14.30;;;;;;;;;;5052777;28;20029;-39
2022/04/24 07:04:35;;;;;;;20.55;13.60;;;;;;;;;;5053158;28;20049;-43
2022/04/24 07:07:01;;;;;;;19.27;12.93;;;;;;;;;;5052961;28;20078;-44
2022/04/24 07:09:29;;;;;;;19.48;13.15;;;;;;;;;;5052908;28;20021;-40
2022/04/24 07:11:55;;;;;;;19.05;13.18;;;;;;;;;;5052724;28;20035;-42
2022/04/24 07:14:21;;;;;;;19.52;12.65;;;;;;;;;;5052942;28;20121;-39
2022/04/24 07:16:47;;;;;;;23.13;14.43;;;;;;;;;;5052624;28;20465;-42
2022/04/24 07:19:14;;;;;;;22.73;13.75;;;;;;;;;;5052828;28;20025;-39
2022/04/24 07:21:40;;;;;;;33.60;19.83;;;;;;;;;;5051505;28;20107;-40
2022/04/24 07:24:06;;;;;;;25.83;17.10;;;;;;;;;;5053002;28;20119;-44
2022/04/24 07:26:32;;;;;;;18.77;13.02;;;;;;;;;;5053156;28;20032;-45
2022/04/24 07:28:59;;;;;;;16.52;11.88;;;;;;;;;;5052758;28;20017;-44
2022/04/24 07:31:25;;;;;;;24.92;15.13;;;;;;;;;;5052631;28;20158;-43
2022/04/24 07:33:56;;;;;;;20.27;12.10;;;;;;;;;;5051986;28;20032;-45
2022/04/24 07:36:22;;;;;;;18.88;10.60;;;;;;;;;;5055831;28;20411;-45
2022/04/24 07:38:51;;;;;;;16.50;10.30;;;;;;;;;;5056771;28;20021;-38
2022/04/24 07:41:17;;;;;;;15.93;10.02;;;;;;;;;;5056735;28;20075;-38
2022/04/24 07:43:48;;;;;;;14.25;9.60;;;;;;;;;;5056424;28;20419;-47
2022/04/24 07:46:15;;;;;;;16.95;9.77;;;;;;;;;;5053760;28;20013;-43
2022/04/24 07:48:41;;;;;;;19.15;12.18;;;;;;;;;;5056280;28;20028;-41
2022/04/24 07:51:07;;;;;;;16.30;11.25;;;;;;;;;;5056320;28;20040;-42
2022/04/24 07:53:33;;;;;;;17.58;11.32;;;;;;;;;;5056442;28;20120;-41
2022/04/24 07:55:59;;;;;;;29.58;18.50;;;;;;;;;;5056401;28;20017;-40
2022/04/24 07:58:27;;;;;;;15.45;9.88;;;;;;;;;;5056438;28;20376;-38
2022/04/24 08:00:54;;;;;;;24.55;13.77;;;;;;;;;;5056032;28;20020;-39
2022/04/24 08:03:20;;;;;;;14.88;9.35;;;;;;;;;;5056302;28;20056;-38
2022/04/24 08:05:50;;;;;;;11.55;7.72;;;;;;;;;;5056197;28;20019;-42
2022/04/24 08:08:27;;;;;;;14.30;9.00;;;;;;;;;;5054688;28;20032;-44
2022/04/24 08:10:57;;;;;;;12.45;6.43;;;;;;;;;;5056561;28;20028;-41
2022/04/24 08:13:23;;;;;;;8.18;6.18;;;;;;;;;;5056462;28;20037;-44
2022/04/24 08:15:50;;;;;;;8.48;5.57;;;;;;;;;;5056459;28;20021;-44
2022/04/24 08:18:17;;;;;;;7.38;4.60;;;;;;;;;;5056125;28;20025;-38
2022/04/24 08:20:43;;;;;;;12.65;6.32;;;;;;;;;;5056316;28;20025;-43
2022/04/24 08:23:10;;;;;;;10.60;5.05;;;;;;;;;;5056374;28;20033;-38
2022/04/24 08:25:36;;;;;;;8.95;5.40;;;;;;;;;;5056331;28;20385;-44
2022/04/24 08:28:12;;;;;;;6.50;4.50;;;;;;;;;;5056302;28;20049;-45
2022/04/24 08:30:39;;;;;;;8.65;5.68;;;;;;;;;;5052629;28;20013;-40
2022/04/24 08:33:06;;;;;;;7.85;4.40;;;;;;;;;;5055498;28;20044;-40
2022/04/24 08:35:32;;;;;;;11.80;5.50;;;;;;;;;;5055727;28;20028;-42
2022/04/24 08:37:58;;;;;;;6.28;4.30;;;;;;;;;;5055582;28;20016;-39
2022/04/24 08:40:24;;;;;;;6.68;3.30;;;;;;;;;;5052818;28;20020;-43
2022/04/24 08:42:54;;;;;;;12.13;6.90;;;;;;;;;;5055544;28;20362;-45
2022/04/24 08:45:24;;;;;;;8.88;5.20;;;;;;;;;;5055465;28;20032;-44
2022/04/24 08:47:50;;;;;;;6.55;3.72;;;;;;;;;;5055495;28;20154;-39
2022/04/24 08:50:16;;;;;;;8.10;5.43;;;;;;;;;;5055314;28;20045;-44
2022/04/24 08:52:44;;;;;;;4.32;2.40;;;;;;;;;;5055388;28;20029;-44
2022/04/24 08:55:11;;;;;;;15.63;8.25;;;;;;;;;;5054471;28;20493;-42
2022/04/24 08:57:37;;;;;;;6.65;3.55;;;;;;;;;;5055540;28;20094;-44
2022/04/24 09:00:04;;;;;;;10.85;6.30;;;;;;;;;;5055148;28;20021;-40
2022/04/24 09:02:31;;;;;;;23.63;11.63;;;;;;;;;;5053529;28;20374;-41
2022/04/24 09:04:57;;;;;;;12.27;6.68;;;;;;;;;;5054935;28;20535;-43
2022/04/24 09:07:30;;;;;;;6.10;2.97;;;;;;;;;;5054998;28;20051;-40
2022/04/24 09:09:56;;;;;;;7.10;3.75;;;;;;;;;;5054931;28;20350;-45
2022/04/24 09:12:26;;;;;;;10.93;4.47;;;;;;;;;;5054714;28;20040;-42
2022/04/24 09:14:54;;;;;;;6.10;1.75;;;;;;;;;;5055132;28;20013;-42
2022/04/24 09:17:21;;;;;;;3.72;1.80;;;;;;;;;;5054763;28;20025;-41
2022/04/24 09:19:48;;;;;;;7.05;1.67;;;;;;;;;;5052404;28;20016;-41
2022/04/24 09:22:14;;;;;;;5.38;2.10;;;;;;;;;;5054822;28;20037;-46
2022/04/24 09:24:43;;;;;;;10.63;4.82;;;;;;;;;;5054661;28;20028;-43
2022/04/24 09:27:10;;;;;;;4.47;1.88;;;;;;;;;;5052120;28;20358;-40
2022/04/24 09:29:37;;;;;;;6.05;2.00;;;;;;;;;;5054597;28;20028;-42
2022/04/24 09:32:08;;;;;;;10.80;3.90;;;;;;;;;;5054608;28;20037;-40
2022/04/24 09:34:35;;;;;;;11.23;5.30;;;;;;;;;;5054589;28;20040;-40
2022/04/24 09:37:03;;;;;;;12.57;6.30;;;;;;;;;;5029491;28;20163;-41
2022/04/24 09:39:30;;;;;;;9.02;3.95;;;;;;;;;;5022538;28;20036;-40
2022/04/24 09:42:03;;;;;;;14.65;6.65;;;;;;;;;;5022976;28;20026;-42
2022/04/24 09:44:38;;;;;;;4.70;2.03;;;;;;;;;;5022600;28;20026;-42
2022/04/24 09:47:05;;;;;;;4.65;1.20;;;;;;;;;;5022293;28;20028;-44
2022/04/24 09:49:34;;;;;;;7.53;2.22;;;;;;;;;;5022330;28;20060;-44
2022/04/24 09:52:01;;;;;;;18.70;9.13;;;;;;;;;;5022217;28;20509;-40
2022/04/24 09:54:28;;;;;;;12.80;6.30;;;;;;;;;;5022350;28;20029;-43
2022/04/24 09:56:54;;;;;;;6.13;2.85;;;;;;;;;;5021738;28;20032;-42
2022/04/24 09:59:22;;;;;;;9.30;5.18;;;;;;;;;;5022187;28;20025;-40
2022/04/24 10:01:50;;;;;;;7.95;2.20;;;;;;;;;;5021603;28;20017;-43
2022/04/24 10:04:17;;;;;;;9.32;3.20;;;;;;;;;;5022891;28;20025;-43
2022/04/24 10:06:44;;;;;;;3.40;1.40;;;;;;;;;;5023772;28;20476;-43
2022/04/24 10:09:10;;;;;;;7.07;2.15;;;;;;;;;;5022297;28;20041;-40
2022/04/24 10:11:36;;;;;;;5.80;1.92;;;;;;;;;;5022009;28;20484;-41
2022/04/24 10:14:04;;;;;;;4.53;1.02;;;;;;;;;;5020880;28;20539;-42
2022/04/24 10:16:47;;;;;;;13.48;4.75;;;;;;;;;;5021878;28;20059;-41
2022/04/24 10:19:16;;;;;;;85.43;33.60;;;;;;;;;;5023052;28;20382;-41
2022/04/24 10:22:01;;;;;;;9.30;5.68;;;;;;;;;;5021633;28;20479;-42
2022/04/24 10:24:37;;;;;;;30.30;17.75;;;;;;;;;;5021822;28;20025;-43
2022/04/24 10:27:03;;;;;;;8.68;5.38;;;;;;;;;;5021202;28;20140;-43
2022/04/24 10:29:30;;;;;;;5.10;2.15;;;;;;;;;;5022764;28;20032;-40
2022/04/24 10:31:56;;;;;;;13.55;5.82;;;;;;;;;;5021704;28;20029;-46
2022/04/24 10:34:23;;;;;;;3.90;1.70;;;;;;;;;;5021076;28;20029;-44
2022/04/24 10:37:04;;;;;;;3.03;1.40;;;;;;;;;;5022463;28;20035;-41
2022/04/24 10:39:33;;;;;;;1.63;1.08;;;;;;;;;;5022845;28;20025;-43
2022/04/24 10:42:13;;;;;;;3.40;1.13;;;;;;;;;;5021444;28;20013;-42
2022/04/24 10:44:59;;;;;;;5.68;1.23;;;;;;;;;;5022575;28;20025;-42
2022/04/24 10:47:25;;;;;;;7.80;1.45;;;;;;;;;;5018925;28;20064;-42
2022/04/24 10:50:06;;;;;;;5.53;1.10;;;;;;;;;;5020970;28;20063;-44
2022/04/24 10:52:31;;;;;;;;;;;;;;;;;;5023001;28;20092;-39
2022/04/24 10:55:06;;;;;;;2.42;0.90;;;;;;;;;;5021444;28;20324;-44
2022/04/24 10:57:40;;;;;;;4.13;1.13;;;;;;;;;;5021070;28;20529;-43
2022/04/24 11:00:13;;;;;;;3.13;1.10;;;;;;;;;;5022559;28;20030;-44
2022/04/24 11:02:39;;;;;;;4.43;1.20;;;;;;;;;;5021574;28;20697;-41
2022/04/24 11:05:06;;;;;;;5.15;1.10;;;;;;;;;;5020983;28;20033;-48
2022/04/24 11:07:33;;;;;;;4.40;1.30;;;;;;;;;;5020376;28;20025;-37
2022/04/24 11:10:20;;;;;;;6.57;2.30;;;;;;;;;;5020986;28;20551;-44
2022/04/24 11:12:48;;;;;;;10.77;1.45;;;;;;;;;;5022141;28;20543;-43
2022/04/24 11:15:15;;;;;;;5.63;1.63;;;;;;;;;;5022075;28;20889;-46
2022/04/24 11:17:44;;;;;;;4.78;2.15;;;;;;;;;;5021104;28;20025;-43
2022/04/24 11:20:13;;;;;;;8.27;1.50;;;;;;;;;;5020735;28;20442;-46
2022/04/24 11:22:48;;;;;;;5.43;1.73;;;;;;;;;;5020698;28;20040;-42
2022/04/24 11:25:24;;;;;;;2.60;1.15;;;;;;;;;;5022016;28;20026;-43
2022/04/24 11:27:54;;;;;;;4.57;1.75;;;;;;;;;;5026778;28;20041;-43
2022/04/24 11:30:22;;;;;;;6.38;1.50;;;;;;;;;;5020796;28;20508;-44
2022/04/24 11:32:54;;;;;;;7.70;1.42;;;;;;;;;;5020759;28;20067;-41
2022/04/24 11:35:27;;;;;;;6.35;1.40;;;;;;;;;;5020870;28;20057;-41
2022/04/24 11:37:54;;;;;;;6.97;1.20;;;;;;;;;;5020788;28;20053;-44
2022/04/24 11:40:21;;;;;;;5.22;1.55;;;;;;;;;;5020638;28;20028;-42
2022/04/24 11:42:47;;;;;;;6.55;1.50;;;;;;;;;;5020601;28;20065;-40
2022/04/24 11:50:56;;;;;;;9.95;1.52;;;;;;;;;;5032040;28;20604;-44
2022/04/24 11:53:22;;;;;;;4.72;1.50;;;;;;;;;;5031942;28;20052;-41
2022/04/24 11:56:04;;;;;;;14.10;2.08;;;;;;;;;;5031516;28;20025;-43
2022/04/24 11:58:36;;;;;;;8.65;1.42;;;;;;;;;;5031494;28;20440;-43
2022/04/24 12:01:04;;;;;;;7.25;2.28;;;;;;;;;;5031806;28;20489;-44
2022/04/24 12:03:32;;;;;;;3.97;1.35;;;;;;;;;;5030752;28;20481;-44
2022/04/24 12:05:59;;;;;;;3.40;1.63;;;;;;;;;;5031713;28;20040;-43
2022/04/24 12:08:25;;;;;;;2.30;1.00;;;;;;;;;;5031832;28;20078;-38
2022/04/24 12:10:52;;;;;;;4.43;1.98;;;;;;;;;;5030792;28;20029;-43
2022/04/24 12:13:23;;;;;;;8.95;1.33;;;;;;;;;;5031876;28;20045;-44
2022/04/24 12:15:56;;;;;;;5.22;2.35;;;;;;;;;;5030610;28;20021;-44
2022/04/24 12:18:25;;;;;;;5.75;1.80;;;;;;;;;;5031626;28;20162;-44
2022/04/24 12:20:52;;;;;;;2.25;1.05;;;;;;;;;;5034095;28;20057;-43
2022/04/24 12:23:20;;;;;;;9.32;2.53;;;;;;;;;;5034790;28;20033;-41
2022/04/24 12:25:50;;;;;;;2.58;1.65;;;;;;;;;;5024633;28;20798;-40
2022/04/24 12:28:31;;;;;;;6.28;1.95;;;;;;;;;;5023927;28;20025;-39
2022/04/24 12:30:57;;;;;;;3.78;2.20;;;;;;;;;;5028406;28;20041;-46
2022/04/24 12:33:28;;;;;;;5.10;1.38;;;;;;;;;;5028564;28;20176;-42
2022/04/24 12:35:55;;;;;;;5.13;1.70;;;;;;;;;;5030772;28;20029;-44
2022/04/24 12:38:24;;;;;;;17.00;8.75;;;;;;;;;;5030092;28;20139;-44
2022/04/24 12:40:55;;;;;;;5.93;2.65;;;;;;;;;;5030723;28;20022;-43
2022/04/24 12:43:25;;;;;;;18.67;7.07;;;;;;;;;;5029447;28;20021;-43
2022/04/24 12:45:57;;;;;;;5.53;2.90;;;;;;;;;;5028031;28;20025;-39
2022/04/24 12:48:23;;;;;;;12.10;6.28;;;;;;;;;;5031076;28;20035;-42
2022/04/24 12:50:53;;;;;;;12.48;5.00;;;;;;;;;;5031479;28;20400;-39
2022/04/24 12:53:20;;;;;;;7.00;3.10;;;;;;;;;;5024836;28;20949;-39
2022/04/24 12:55:46;;;;;;;8.85;2.15;;;;;;;;;;5024003;28;20083;-39
2022/04/24 12:58:15;;;;;;;7.63;3.55;;;;;;;;;;5023740;28;20059;-43
2022/04/24 13:00:42;;;;;;;7.85;1.63;;;;;;;;;;5025118;28;20016;-40
2022/04/24 13:03:08;;;;;;;7.97;4.05;;;;;;;;;;5023809;28;20033;-44
2022/04/24 13:05:37;;;;;;;5.85;2.03;;;;;;;;;;5023583;28;20025;-40
2022/04/24 13:08:03;;;;;;;10.95;3.95;;;;;;;;;;5023752;28;20363;-46
2022/04/24 13:10:32;;;;;;;5.32;2.15;;;;;;;;;;5023120;28;20072;-43
2022/04/24 13:13:04;;;;;;;7.72;1.90;;;;;;;;;;5023029;28;20064;-42
2022/04/24 13:15:32;;;;;;;13.00;2.10;;;;;;;;;;5023494;28;20025;-41
2022/04/24 13:18:08;;;;;;;6.95;2.05;;;;;;;;;;5023405;28;20021;-43
2022/04/24 13:20:38;;;;;;;14.23;3.20;;;;;;;;;;5023351;28;20032;-46
2022/04/24 13:23:08;;;;;;;12.75;1.83;;;;;;;;;;5023643;28;20432;-47
2022/04/24 13:25:35;;;;;;;7.45;1.67;;;;;;;;;;5023883;28;20021;-46
2022/04/24 13:28:02;;;;;;;10.82;2.15;;;;;;;;;;5024256;28;20029;-42
2022/04/24 13:30:28;;;;;;;10.38;1.90;;;;;;;;;;5023127;28;20178;-41
2022/04/24 13:32:54;;;;;;;7.30;2.95;;;;;;;;;;5023712;28;20711;-40
2022/04/24 13:35:20;;;;;;;14.23;3.42;;;;;;;;;;5023525;28;20099;-41
2022/04/24 13:40:31;;;;;;;12.65;4.75;;;;;;;;;;5023384;28;20578;-40
2022/04/24 13:42:57;;;;;;;7.78;2.85;;;;;;;;;;5023322;28;20029;-44
2022/04/24 13:45:24;;;;;;;14.25;2.90;;;;;;;;;;5022661;28;20056;-41
2022/04/24 13:47:50;;;;;;;5.95;1.92;;;;;;;;;;5025082;28;21357;-40
2022/04/24 13:50:16;;;;;;;7.72;2.53;;;;;;;;;;5022572;28;20060;-38
2022/04/24 13:52:46;;;;;;;15.50;5.00;;;;;;;;;;5023897;28;20369;-40
2022/04/24 13:55:13;;;;;;;16.50;2.78;;;;;;;;;;5023834;28;20037;-40
2022/04/24 13:57:39;;;;;;;11.35;2.30;;;;;;;;;;5022759;28;20465;-40
2022/04/24 14:00:18;;;;;;;9.40;2.67;;;;;;;;;;5022394;28;20799;-40
2022/04/24 14:02:44;;;;;;;8.18;2.70;;;;;;;;;;5022659;28;20850;-39
2022/04/24 14:05:11;;;;;;;6.93;2.63;;;;;;;;;;5022471;28;20029;-43
2022/04/24 14:07:38;;;;;;;8.07;2.47;;;;;;;;;;5022338;28;20444;-40
2022/04/24 14:10:04;;;;;;;5.80;2.10;;;;;;;;;;5022195;28;20053;-40
2022/04/24 14:12:31;;;;;;;8.48;2.55;;;;;;;;;;5022134;28;20281;-44
2022/04/24 14:14:57;;;;;;;8.52;2.45;;;;;;;;;;5022109;28;20026;-40
2022/04/24 14:17:23;;;;;;;8.40;1.88;;;;;;;;;;5022349;28;20425;-39
2022/04/24 14:19:49;;;;;;;10.90;2.55;;;;;;;;;;5021995;28;20067;-41
2022/04/24 14:22:15;;;;;;;9.02;1.65;;;;;;;;;;5022016;28;20097;-39
2022/04/24 14:24:42;;;;;;;9.45;1.52;;;;;;;;;;5022129;28;20347;-45
2022/04/24 14:27:08;;;;;;;9.30;2.30;;;;;;;;;;5021987;28;20122;-39
2022/04/24 14:29:35;;;;;;;6.00;1.40;;;;;;;;;;5021535;28;20033;-40
2022/04/24 14:32:05;;;;;;;6.97;1.67;;;;;;;;;;5023108;28;20029;-39
2022/04/24 14:34:35;;;;;;;3.35;1.55;;;;;;;;;;5019978;28;20196;-39
2022/04/24 14:37:01;;;;;;;5.35;1.25;;;;;;;;;;5021850;28;20883;-38